Terminal Aerodrome Forecast
Issued by NWS Portland, ME

Home | Current Version | Previous Version | Text Only | Print | Product List | Glossary On
Versions: 1 2 3 4 5 6 7 8 9 10 11 12 13 14 15 16 17 18 19 20 21
000
FTUS41 KGYX 032331
TAFPWM
TAF
KPWM 032331Z 0400/0424 18012G20KT P6SM SCT070 BKN200
      TEMPO 0400/0404 5SM SHRA BKN070 OVC100
     FM040400 20005KT 6SM BR VCSH BKN070 BKN100
     FM041200 23007KT P6SM SCT080
     FM041800 21010KT P6SM VCTS SCT060CB BKN100=

USA.gov is the U.S. government's official web portal to all federal, state and local government web resources and services.